sensor_id;sensor_type;location;lat;lon;timestamp;temperature;humidity
36594;DHT22;22603;47.900;8.146;2023-01-28T00:02:34;-3.30;99.90
36594;DHT22;22603;47.900;8.146;2023-01-28T00:05:21;-3.20;99.90
36594;DHT22;22603;47.900;8.146;2023-01-28T00:08:08;-3.20;99.90
36594;DHT22;22603;47.900;8.146;2023-01-28T00:10:58;-3.00;99.90
36594;DHT22;22603;47.900;8.146;2023-01-28T00:13:51;-3.10;99.90
36594;DHT22;22603;47.900;8.146;2023-01-28T00:16:38;-3.10;99.90
36594;DHT22;22603;47.900;8.146;2023-01-28T00:19:25;-3.10;99.90
36594;DHT22;22603;47.900;8.146;2023-01-28T00:22:12;-3.10;99.90
36594;DHT22;22603;47.900;8.146;2023-01-28T00:24:59;-3.10;99.90
36594;DHT22;22603;47.900;8.146;2023-01-28T00:27:46;-3.10;99.90
36594;DHT22;22603;47.900;8.146;2023-01-28T00:30:35;-3.10;99.90
36594;DHT22;22603;47.900;8.146;2023-01-28T00:33:22;-3.30;99.90
36594;DHT22;22603;47.900;8.146;2023-01-28T00:36:10;-3.20;99.90
36594;DHT22;22603;47.900;8.146;2023-01-28T00:38:58;-3.40;99.90
36594;DHT22;22603;47.900;8.146;2023-01-28T00:41:45;-3.40;99.90
36594;DHT22;22603;47.900;8.146;2023-01-28T00:44:32;-3.40;99.90
36594;DHT22;22603;47.900;8.146;2023-01-28T00:47:22;-3.40;99.90
36594;DHT22;22603;47.900;8.146;2023-01-28T00:50:10;-3.40;99.90
36594;DHT22;22603;47.900;8.146;2023-01-28T00:52:57;-3.40;99.90
36594;DHT22;22603;47.900;8.146;2023-01-28T00:55:43;-3.40;99.90
36594;DHT22;22603;47.900;8.146;2023-01-28T00:58:30;-3.40;99.90
36594;DHT22;22603;47.900;8.146;2023-01-28T01:01:20;-3.40;99.90
36594;DHT22;22603;47.900;8.146;2023-01-28T01:04:08;-3.50;99.90
36594;DHT22;22603;47.900;8.146;2023-01-28T01:06:58;-3.40;99.90
36594;DHT22;22603;47.900;8.146;2023-01-28T01:09:45;-3.40;99.90
36594;DHT22;22603;47.900;8.146;2023-01-28T01:12:32;-3.40;99.90
36594;DHT22;22603;47.900;8.146;2023-01-28T01:15:19;-3.40;99.90
36594;DHT22;22603;47.900;8.146;2023-01-28T01:18:07;-3.50;99.90
36594;DHT22;22603;47.900;8.146;2023-01-28T01:20:56;-3.40;99.90
36594;DHT22;22603;47.900;8.146;2023-01-28T01:23:44;-3.50;99.90
36594;DHT22;22603;47.900;8.146;2023-01-28T01:26:31;-3.40;99.90
36594;DHT22;22603;47.900;8.146;2023-01-28T01:29:18;-3.40;99.90
36594;DHT22;22603;47.900;8.146;2023-01-28T01:32:05;-3.30;99.90
36594;DHT22;22603;47.900;8.146;2023-01-28T01:34:52;-3.40;99.90
36594;DHT22;22603;47.900;8.146;2023-01-28T01:37:42;-3.30;99.90
36594;DHT22;22603;47.900;8.146;2023-01-28T01:40:30;-3.40;99.90
36594;DHT22;22603;47.900;8.146;2023-01-28T01:43:19;-3.30;99.90
36594;DHT22;22603;47.900;8.146;2023-01-28T01:46:06;-3.30;99.90
36594;DHT22;22603;47.900;8.146;2023-01-28T01:48:55;-3.30;99.90
36594;DHT22;22603;47.900;8.146;2023-01-28T01:51:43;-3.30;99.90
36594;DHT22;22603;47.900;8.146;2023-01-28T01:54:34;-3.30;99.90
36594;DHT22;22603;47.900;8.146;2023-01-28T01:57:27;-3.30;99.90
36594;DHT22;22603;47.900;8.146;2023-01-28T02:00:16;-3.30;99.90
36594;DHT22;22603;47.900;8.146;2023-01-28T02:03:05;-3.30;99.90
36594;DHT22;22603;47.900;8.146;2023-01-28T02:05:52;-3.30;99.90
36594;DHT22;22603;47.900;8.146;2023-01-28T02:08:41;-3.30;99.90
36594;DHT22;22603;47.900;8.146;2023-01-28T02:11:32;-3.20;99.90
36594;DHT22;22603;47.900;8.146;2023-01-28T02:14:20;-3.20;99.90
36594;DHT22;22603;47.900;8.146;2023-01-28T02:17:16;-3.20;99.90
36594;DHT22;22603;47.900;8.146;2023-01-28T02:20:08;-3.20;99.90
36594;DHT22;22603;47.900;8.146;2023-01-28T02:23:20;-3.10;99.90
36594;DHT22;22603;47.900;8.146;2023-01-28T02:26:25;-3.10;99.90
36594;DHT22;22603;47.900;8.146;2023-01-28T02:29:25;-3.20;99.90
36594;DHT22;22603;47.900;8.146;2023-01-28T02:32:16;-3.20;99.90
36594;DHT22;22603;47.900;8.146;2023-01-28T02:35:08;-3.20;99.90
36594;DHT22;22603;47.900;8.146;2023-01-28T02:38:02;-3.20;99.90
36594;DHT22;22603;47.900;8.146;2023-01-28T02:40:54;-3.20;99.90
36594;DHT22;22603;47.900;8.146;2023-01-28T02:43:50;-3.20;99.90
36594;DHT22;22603;47.900;8.146;2023-01-28T02:46:38;-3.20;99.90
36594;DHT22;22603;47.900;8.146;2023-01-28T02:49:48;-3.20;99.90
36594;DHT22;22603;47.900;8.146;2023-01-28T02:52:46;-3.20;99.90
36594;DHT22;22603;47.900;8.146;2023-01-28T02:56:01;-3.20;99.90
36594;DHT22;22603;47.900;8.146;2023-01-28T02:58:57;-3.10;99.90
36594;DHT22;22603;47.900;8.146;2023-01-28T03:02:12;-3.20;99.90
36594;DHT22;22603;47.900;8.146;2023-01-28T03:05:07;-3.20;99.90
36594;DHT22;22603;47.900;8.146;2023-01-28T03:08:01;-3.30;99.90
36594;DHT22;22603;47.900;8.146;2023-01-28T03:11:09;-3.30;99.90
36594;DHT22;22603;47.900;8.146;2023-01-28T03:14:14;-3.30;99.90
36594;DHT22;22603;47.900;8.146;2023-01-28T03:17:25;-3.30;99.90
36594;DHT22;22603;47.900;8.146;2023-01-28T03:20:36;-3.30;99.90
36594;DHT22;22603;47.900;8.146;2023-01-28T03:23:47;-3.40;99.90
36594;DHT22;22603;47.900;8.146;2023-01-28T03:27:00;-3.30;99.90
36594;DHT22;22603;47.900;8.146;2023-01-28T03:30:09;-3.40;99.90
36594;DHT22;22603;47.900;8.146;2023-01-28T03:33:16;-3.40;99.90
36594;DHT22;22603;47.900;8.146;2023-01-28T03:36:21;-3.40;99.90
36594;DHT22;22603;47.900;8.146;2023-01-28T03:39:27;-3.40;99.90
36594;DHT22;22603;47.900;8.146;2023-01-28T03:42:15;-3.40;99.90
36594;DHT22;22603;47.900;8.146;2023-01-28T03:45:04;-3.40;99.90
36594;DHT22;22603;47.900;8.146;2023-01-28T03:47:52;-3.40;99.90
36594;DHT22;22603;47.900;8.146;2023-01-28T03:50:40;-3.50;99.90
36594;DHT22;22603;47.900;8.146;2023-01-28T03:53:27;-3.40;99.90
36594;DHT22;22603;47.900;8.146;2023-01-28T03:56:17;-3.50;99.90
36594;DHT22;22603;47.900;8.146;2023-01-28T03:59:09;-3.40;99.90
36594;DHT22;22603;47.900;8.146;2023-01-28T04:01:56;-3.50;99.90
36594;DHT22;22603;47.900;8.146;2023-01-28T04:04:43;-3.40;99.90
36594;DHT22;22603;47.900;8.146;2023-01-28T04:07:31;-3.40;99.90
36594;DHT22;22603;47.900;8.146;2023-01-28T04:10:18;-3.40;99.90
36594;DHT22;22603;47.900;8.146;2023-01-28T04:13:05;-3.30;99.90
36594;DHT22;22603;47.900;8.146;2023-01-28T04:15:52;-3.30;99.90
36594;DHT22;22603;47.900;8.146;2023-01-28T04:18:38;-3.40;99.90
36594;DHT22;22603;47.900;8.146;2023-01-28T04:21:25;-3.30;99.90
36594;DHT22;22603;47.900;8.146;2023-01-28T04:24:14;-3.30;99.90
36594;DHT22;22603;47.900;8.146;2023-01-28T04:27:03;-3.30;99.90
36594;DHT22;22603;47.900;8.146;2023-01-28T04:29:49;-3.20;99.90
36594;DHT22;22603;47.900;8.146;2023-01-28T04:32:36;-3.30;99.90
36594;DHT22;22603;47.900;8.146;2023-01-28T04:35:23;-3.30;99.90
36594;DHT22;22603;47.900;8.146;2023-01-28T04:38:10;-3.30;99.90
36594;DHT22;22603;47.900;8.146;2023-01-28T04:40:58;-3.30;99.90
36594;DHT22;22603;47.900;8.146;2023-01-28T04:43:45;-3.30;99.90
36594;DHT22;22603;47.900;8.146;2023-01-28T04:46:33;-3.30;99.90
36594;DHT22;22603;47.900;8.146;2023-01-28T04:49:20;-3.30;99.90
36594;DHT22;22603;47.900;8.146;2023-01-28T04:52:07;-3.30;99.90
36594;DHT22;22603;47.900;8.146;2023-01-28T04:54:54;-3.20;99.90
36594;DHT22;22603;47.900;8.146;2023-01-28T04:57:42;-3.20;99.90
36594;DHT22;22603;47.900;8.146;2023-01-28T05:00:30;-3.20;99.90
36594;DHT22;22603;47.900;8.146;2023-01-28T05:03:17;-3.20;99.90
36594;DHT22;22603;47.900;8.146;2023-01-28T05:06:04;-3.30;99.90
36594;DHT22;22603;47.900;8.146;2023-01-28T05:08:51;-3.30;99.90
36594;DHT22;22603;47.900;8.146;2023-01-28T05:11:38;-3.30;99.90
36594;DHT22;22603;47.900;8.146;2023-01-28T05:14:27;-3.30;99.90
36594;DHT22;22603;47.900;8.146;2023-01-28T05:17:14;-3.30;99.90
36594;DHT22;22603;47.900;8.146;2023-01-28T05:20:00;-3.30;99.90
36594;DHT22;22603;47.900;8.146;2023-01-28T05:22:48;-3.30;99.90
36594;DHT22;22603;47.900;8.146;2023-01-28T05:25:35;-3.30;99.90
36594;DHT22;22603;47.900;8.146;2023-01-28T05:28:22;-3.30;99.90
36594;DHT22;22603;47.900;8.146;2023-01-28T05:31:11;-3.20;99.90
36594;DHT22;22603;47.900;8.146;2023-01-28T05:33:57;-3.20;99.90
36594;DHT22;22603;47.900;8.146;2023-01-28T05:36:44;-3.10;99.90
36594;DHT22;22603;47.900;8.146;2023-01-28T05:39:31;-3.30;99.90
36594;DHT22;22603;47.900;8.146;2023-01-28T05:42:18;-3.30;99.90
36594;DHT22;22603;47.900;8.146;2023-01-28T05:45:08;-3.30;99.90
36594;DHT22;22603;47.900;8.146;2023-01-28T05:47:56;-3.30;99.90
36594;DHT22;22603;47.900;8.146;2023-01-28T05:50:45;-3.40;99.90
36594;DHT22;22603;47.900;8.146;2023-01-28T05:53:32;-3.30;99.90
36594;DHT22;22603;47.900;8.146;2023-01-28T05:56:19;-3.40;99.90
36594;DHT22;22603;47.900;8.146;2023-01-28T05:59:06;-3.30;99.90
36594;DHT22;22603;47.900;8.146;2023-01-28T06:01:55;-3.20;99.90
36594;DHT22;22603;47.900;8.146;2023-01-28T06:04:43;-3.30;99.90
36594;DHT22;22603;47.900;8.146;2023-01-28T06:07:30;-3.10;99.90
36594;DHT22;22603;47.900;8.146;2023-01-28T06:10:19;-3.20;99.90
36594;DHT22;22603;47.900;8.146;2023-01-28T06:13:07;-3.30;99.90
36594;DHT22;22603;47.900;8.146;2023-01-28T06:15:54;-3.20;99.90
36594;DHT22;22603;47.900;8.146;2023-01-28T06:18:42;-3.30;99.90
36594;DHT22;22603;47.900;8.146;2023-01-28T06:21:32;-3.20;99.90
36594;DHT22;22603;47.900;8.146;2023-01-28T06:24:18;-3.30;99.90
36594;DHT22;22603;47.900;8.146;2023-01-28T06:27:05;-3.30;99.90
36594;DHT22;22603;47.900;8.146;2023-01-28T06:29:52;-3.30;99.90
36594;DHT22;22603;47.900;8.146;2023-01-28T06:32:42;-3.30;99.90
36594;DHT22;22603;47.900;8.146;2023-01-28T06:35:29;-3.30;99.90
36594;DHT22;22603;47.900;8.146;2023-01-28T06:38:17;-3.20;99.90
36594;DHT22;22603;47.900;8.146;2023-01-28T06:41:04;-3.30;99.90
36594;DHT22;22603;47.900;8.146;2023-01-28T06:43:52;-3.30;99.90
36594;DHT22;22603;47.900;8.146;2023-01-28T06:46:39;-3.30;99.90
36594;DHT22;22603;47.900;8.146;2023-01-28T06:49:26;-3.40;99.90
36594;DHT22;22603;47.900;8.146;2023-01-28T06:52:12;-3.30;99.90
36594;DHT22;22603;47.900;8.146;2023-01-28T06:55:01;-3.30;99.90
36594;DHT22;22603;47.900;8.146;2023-01-28T06:57:47;-3.40;99.90
36594;DHT22;22603;47.900;8.146;2023-01-28T07:00:35;-3.40;99.90
36594;DHT22;22603;47.900;8.146;2023-01-28T07:03:23;-3.40;99.90
36594;DHT22;22603;47.900;8.146;2023-01-28T07:06:12;-3.30;99.90
36594;DHT22;22603;47.900;8.146;2023-01-28T07:08:59;-3.30;99.90
36594;DHT22;22603;47.900;8.146;2023-01-28T07:11:47;-3.20;99.90
36594;DHT22;22603;47.900;8.146;2023-01-28T07:14:34;-3.30;99.90
36594;DHT22;22603;47.900;8.146;2023-01-28T07:17:21;-3.30;99.90
36594;DHT22;22603;47.900;8.146;2023-01-28T07:20:10;-3.20;99.90
36594;DHT22;22603;47.900;8.146;2023-01-28T07:22:57;-3.20;99.90
36594;DHT22;22603;47.900;8.146;2023-01-28T07:25:44;-3.20;99.90
36594;DHT22;22603;47.900;8.146;2023-01-28T07:28:32;-3.20;99.90
36594;DHT22;22603;47.900;8.146;2023-01-28T07:31:19;-3.20;99.90
36594;DHT22;22603;47.900;8.146;2023-01-28T07:34:08;-3.20;99.90
36594;DHT22;22603;47.900;8.146;2023-01-28T07:36:55;-3.20;99.90
36594;DHT22;22603;47.900;8.146;2023-01-28T07:39:41;-3.20;99.90
36594;DHT22;22603;47.900;8.146;2023-01-28T07:42:28;-3.10;99.90
36594;DHT22;22603;47.900;8.146;2023-01-28T07:45:16;-3.20;99.90
36594;DHT22;22603;47.900;8.146;2023-01-28T07:48:05;-3.10;99.90
36594;DHT22;22603;47.900;8.146;2023-01-28T07:50:52;-3.10;99.90
36594;DHT22;22603;47.900;8.146;2023-01-28T07:53:39;-2.90;99.90
36594;DHT22;22603;47.900;8.146;2023-01-28T07:56:26;-3.10;99.90
36594;DHT22;22603;47.900;8.146;2023-01-28T07:59:15;-3.10;99.90
36594;DHT22;22603;47.900;8.146;2023-01-28T08:02:04;-3.10;99.90
36594;DHT22;22603;47.900;8.146;2023-01-28T08:04:51;-3.00;99.90
36594;DHT22;22603;47.900;8.146;2023-01-28T08:07:38;-3.10;99.90
36594;DHT22;22603;47.900;8.146;2023-01-28T08:10:25;-3.10;99.90
36594;DHT22;22603;47.900;8.146;2023-01-28T08:13:13;-3.10;99.90
36594;DHT22;22603;47.900;8.146;2023-01-28T08:16:00;-3.00;99.90
36594;DHT22;22603;47.900;8.146;2023-01-28T08:18:48;-3.00;99.90
36594;DHT22;22603;47.900;8.146;2023-01-28T08:21:35;-3.00;99.90
36594;DHT22;22603;47.900;8.146;2023-01-28T08:24:22;-3.00;99.90
36594;DHT22;22603;47.900;8.146;2023-01-28T08:27:09;-3.00;99.90
36594;DHT22;22603;47.900;8.146;2023-01-28T08:29:56;-2.90;99.90
36594;DHT22;22603;47.900;8.146;2023-01-28T08:32:43;-2.80;99.90
36594;DHT22;22603;47.900;8.146;2023-01-28T08:35:32;-2.90;99.90
36594;DHT22;22603;47.900;8.146;2023-01-28T08:38:19;-2.80;99.90
36594;DHT22;22603;47.900;8.146;2023-01-28T08:41:06;-2.80;99.90
36594;DHT22;22603;47.900;8.146;2023-01-28T08:43:53;-2.70;99.90
36594;DHT22;22603;47.900;8.146;2023-01-28T08:46:40;-2.70;99.90
36594;DHT22;22603;47.900;8.146;2023-01-28T08:49:27;-2.60;99.90
36594;DHT22;22603;47.900;8.146;2023-01-28T08:52:15;-2.60;99.90
36594;DHT22;22603;47.900;8.146;2023-01-28T08:55:03;-2.60;99.90
36594;DHT22;22603;47.900;8.146;2023-01-28T08:57:51;-2.60;99.90
36594;DHT22;22603;47.900;8.146;2023-01-28T09:00:40;-2.60;99.90
36594;DHT22;22603;47.900;8.146;2023-01-28T09:03:27;-2.70;99.90
36594;DHT22;22603;47.900;8.146;2023-01-28T09:06:14;-2.60;99.90
36594;DHT22;22603;47.900;8.146;2023-01-28T09:09:03;-2.60;99.90
36594;DHT22;22603;47.900;8.146;2023-01-28T09:11:50;-2.70;99.90
36594;DHT22;22603;47.900;8.146;2023-01-28T09:14:37;-2.70;99.90
36594;DHT22;22603;47.900;8.146;2023-01-28T09:17:24;-2.60;99.90
36594;DHT22;22603;47.900;8.146;2023-01-28T09:20:11;-2.60;99.90
36594;DHT22;22603;47.900;8.146;2023-01-28T09:22:59;-2.50;99.90
36594;DHT22;22603;47.900;8.146;2023-01-28T09:25:47;-2.40;99.90
36594;DHT22;22603;47.900;8.146;2023-01-28T09:28:34;-2.40;99.90
36594;DHT22;22603;47.900;8.146;2023-01-28T09:31:23;-2.40;99.90
36594;DHT22;22603;47.900;8.146;2023-01-28T09:34:11;-2.40;99.90
36594;DHT22;22603;47.900;8.146;2023-01-28T09:36:58;-2.40;99.90
36594;DHT22;22603;47.900;8.146;2023-01-28T09:39:45;-2.40;99.90
36594;DHT22;22603;47.900;8.146;2023-01-28T09:42:42;-2.40;99.90
36594;DHT22;22603;47.900;8.146;2023-01-28T09:45:37;-2.40;99.90
36594;DHT22;22603;47.900;8.146;2023-01-28T09:48:29;-2.30;99.90
36594;DHT22;22603;47.900;8.146;2023-01-28T09:51:28;-2.30;99.90
36594;DHT22;22603;47.900;8.146;2023-01-28T09:54:25;-2.20;99.90
36594;DHT22;22603;47.900;8.146;2023-01-28T09:57:19;-2.10;99.90
36594;DHT22;22603;47.900;8.146;2023-01-28T10:00:14;-2.00;99.90
36594;DHT22;22603;47.900;8.146;2023-01-28T10:03:21;-1.90;99.90
36594;DHT22;22603;47.900;8.146;2023-01-28T10:06:19;-2.00;99.90
36594;DHT22;22603;47.900;8.146;2023-01-28T10:09:18;-2.00;99.90
36594;DHT22;22603;47.900;8.146;2023-01-28T10:12:17;-2.00;99.90
36594;DHT22;22603;47.900;8.146;2023-01-28T10:15:45;-2.00;99.90
36594;DHT22;22603;47.900;8.146;2023-01-28T10:18:36;-1.90;99.90
36594;DHT22;22603;47.900;8.146;2023-01-28T10:21:31;-1.90;99.90
36594;DHT22;22603;47.900;8.146;2023-01-28T10:24:24;-1.80;99.90
36594;DHT22;22603;47.900;8.146;2023-01-28T10:27:16;-1.80;99.90
36594;DHT22;22603;47.900;8.146;2023-01-28T10:30:18;-1.70;99.90
36594;DHT22;22603;47.900;8.146;2023-01-28T10:33:12;-1.60;99.90
36594;DHT22;22603;47.900;8.146;2023-01-28T10:36:02;-1.50;99.90
36594;DHT22;22603;47.900;8.146;2023-01-28T10:38:51;-1.40;99.90
36594;DHT22;22603;47.900;8.146;2023-01-28T10:41:38;-1.40;99.90
36594;DHT22;22603;47.900;8.146;2023-01-28T10:44:43;-1.40;99.90
36594;DHT22;22603;47.900;8.146;2023-01-28T10:47:37;-1.40;99.90
36594;DHT22;22603;47.900;8.146;2023-01-28T10:50:27;-1.40;99.90
36594;DHT22;22603;47.900;8.146;2023-01-28T10:53:14;-1.40;99.90
36594;DHT22;22603;47.900;8.146;2023-01-28T10:56:02;-1.50;99.90
36594;DHT22;22603;47.900;8.146;2023-01-28T10:59:00;-1.50;99.90
36594;DHT22;22603;47.900;8.146;2023-01-28T11:01:49;-1.50;99.90
36594;DHT22;22603;47.900;8.146;2023-01-28T11:04:38;-1.50;99.90
36594;DHT22;22603;47.900;8.146;2023-01-28T11:07:25;-1.40;99.90
36594;DHT22;22603;47.900;8.146;2023-01-28T11:10:27;-1.20;99.90
36594;DHT22;22603;47.900;8.146;2023-01-28T11:13:16;-1.10;99.90
36594;DHT22;22603;47.900;8.146;2023-01-28T11:16:10;-1.10;99.90
36594;DHT22;22603;47.900;8.146;2023-01-28T11:19:02;-0.90;99.90
36594;DHT22;22603;47.900;8.146;2023-01-28T11:21:53;-1.00;99.90
36594;DHT22;22603;47.900;8.146;2023-01-28T11:24:41;-1.10;99.90
36594;DHT22;22603;47.900;8.146;2023-01-28T11:27:31;-1.00;99.90
36594;DHT22;22603;47.900;8.146;2023-01-28T11:30:21;-1.00;99.90
36594;DHT22;22603;47.900;8.146;2023-01-28T11:33:15;-1.30;99.90
36594;DHT22;22603;47.900;8.146;2023-01-28T11:36:10;-1.20;99.90
36594;DHT22;22603;47.900;8.146;2023-01-28T11:39:01;-1.10;99.90
36594;DHT22;22603;47.900;8.146;2023-01-28T11:41:50;-1.00;99.90
36594;DHT22;22603;47.900;8.146;2023-01-28T11:44:37;-1.00;99.90
36594;DHT22;22603;47.900;8.146;2023-01-28T11:47:35;-1.00;99.90
36594;DHT22;22603;47.900;8.146;2023-01-28T11:50:32;-1.20;99.90
36594;DHT22;22603;47.900;8.146;2023-01-28T11:53:44;-1.20;99.90
36594;DHT22;22603;47.900;8.146;2023-01-28T11:56:47;-1.20;99.90
36594;DHT22;22603;47.900;8.146;2023-01-28T11:59:49;-1.10;99.90
36594;DHT22;22603;47.900;8.146;2023-01-28T12:02:52;-1.20;99.90
36594;DHT22;22603;47.900;8.146;2023-01-28T12:05:47;-1.20;99.90
36594;DHT22;22603;47.900;8.146;2023-01-28T12:08:40;-1.20;99.90
36594;DHT22;22603;47.900;8.146;2023-01-28T12:11:32;-1.30;99.90
36594;DHT22;22603;47.900;8.146;2023-01-28T12:15:02;-1.30;99.90
36594;DHT22;22603;47.900;8.146;2023-01-28T12:17:59;-1.20;99.90
36594;DHT22;22603;47.900;8.146;2023-01-28T12:20:54;-1.20;99.90
36594;DHT22;22603;47.900;8.146;2023-01-28T12:23:52;-1.20;99.90
36594;DHT22;22603;47.900;8.146;2023-01-28T12:26:50;-1.20;99.90
36594;DHT22;22603;47.900;8.146;2023-01-28T12:29:42;-1.30;99.90
36594;DHT22;22603;47.900;8.146;2023-01-28T12:32:44;-1.30;99.90
36594;DHT22;22603;47.900;8.146;2023-01-28T12:35:43;-1.40;99.90
36594;DHT22;22603;47.900;8.146;2023-01-28T12:38:44;-1.40;99.90
36594;DHT22;22603;47.900;8.146;2023-01-28T12:41:38;-1.40;99.90
36594;DHT22;22603;47.900;8.146;2023-01-28T12:47:32;-1.60;99.90
36594;DHT22;22603;47.900;8.146;2023-01-28T12:50:25;-1.60;99.90
36594;DHT22;22603;47.900;8.146;2023-01-28T12:53:21;-1.50;99.90
36594;DHT22;22603;47.900;8.146;2023-01-28T12:56:14;-1.50;99.90
36594;DHT22;22603;47.900;8.146;2023-01-28T12:59:06;-1.60;99.90
36594;DHT22;22603;47.900;8.146;2023-01-28T13:02:05;-1.80;99.90
36594;DHT22;22603;47.900;8.146;2023-01-28T13:05:07;-1.70;99.90
36594;DHT22;22603;47.900;8.146;2023-01-28T13:08:01;-1.60;99.90
36594;DHT22;22603;47.900;8.146;2023-01-28T13:10:50;-1.70;99.90
36594;DHT22;22603;47.900;8.146;2023-01-28T13:13:39;-1.80;99.90
36594;DHT22;22603;47.900;8.146;2023-01-28T13:16:28;-1.50;99.90
36594;DHT22;22603;47.900;8.146;2023-01-28T13:19:24;-1.70;99.90
36594;DHT22;22603;47.900;8.146;2023-01-28T13:22:24;-1.80;99.90
36594;DHT22;22603;47.900;8.146;2023-01-28T13:25:18;-1.80;99.90
36594;DHT22;22603;47.900;8.146;2023-01-28T13:28:21;-1.90;99.90
36594;DHT22;22603;47.900;8.146;2023-01-28T13:31:13;-1.90;99.90
36594;DHT22;22603;47.900;8.146;2023-01-28T13:34:04;-1.70;99.90
36594;DHT22;22603;47.900;8.146;2023-01-28T13:36:53;-1.80;99.90
36594;DHT22;22603;47.900;8.146;2023-01-28T13:39:46;-1.80;99.90
36594;DHT22;22603;47.900;8.146;2023-01-28T13:42:36;-1.90;99.90
36594;DHT22;22603;47.900;8.146;2023-01-28T13:45:27;-1.90;99.90
36594;DHT22;22603;47.900;8.146;2023-01-28T13:48:23;-1.90;99.90
36594;DHT22;22603;47.900;8.146;2023-01-28T13:51:18;-1.80;99.90
36594;DHT22;22603;47.900;8.146;2023-01-28T13:54:10;-1.90;99.90
36594;DHT22;22603;47.900;8.146;2023-01-28T13:57:14;-2.00;99.90
36594;DHT22;22603;47.900;8.146;2023-01-28T14:00:15;-2.10;99.90
36594;DHT22;22603;47.900;8.146;2023-01-28T14:03:46;-1.90;99.90
36594;DHT22;22603;47.900;8.146;2023-01-28T14:07:02;-2.10;99.90
36594;DHT22;22603;47.900;8.146;2023-01-28T14:10:07;-2.20;99.90
36594;DHT22;22603;47.900;8.146;2023-01-28T14:13:09;-1.90;99.90
36594;DHT22;22603;47.900;8.146;2023-01-28T14:16:25;-1.90;99.90
36594;DHT22;22603;47.900;8.146;2023-01-28T14:19:14;-1.90;99.90
36594;DHT22;22603;47.900;8.146;2023-01-28T14:22:06;-1.90;99.90
36594;DHT22;22603;47.900;8.146;2023-01-28T14:24:53;-2.00;99.90
36594;DHT22;22603;47.900;8.146;2023-01-28T14:27:44;-2.00;99.90
36594;DHT22;22603;47.900;8.146;2023-01-28T14:30:49;-2.10;99.90
36594;DHT22;22603;47.900;8.146;2023-01-28T14:33:41;-2.10;99.90
36594;DHT22;22603;47.900;8.146;2023-01-28T14:36:29;-1.90;99.90
36594;DHT22;22603;47.900;8.146;2023-01-28T14:39:19;-1.90;99.90
36594;DHT22;22603;47.900;8.146;2023-01-28T14:42:13;-2.00;99.90
36594;DHT22;22603;47.900;8.146;2023-01-28T14:45:17;-2.00;99.90
36594;DHT22;22603;47.900;8.146;2023-01-28T14:48:22;-2.10;99.90
36594;DHT22;22603;47.900;8.146;2023-01-28T14:51:27;-2.20;99.90
36594;DHT22;22603;47.900;8.146;2023-01-28T14:54:42;-2.10;99.90
36594;DHT22;22603;47.900;8.146;2023-01-28T14:57:42;-2.10;99.90
36594;DHT22;22603;47.900;8.146;2023-01-28T15:00:32;-2.10;99.90
36594;DHT22;22603;47.900;8.146;2023-01-28T15:03:20;-2.10;99.90
36594;DHT22;22603;47.900;8.146;2023-01-28T15:06:14;-2.10;99.90
36594;DHT22;22603;47.900;8.146;2023-01-28T15:09:07;-2.10;99.90
36594;DHT22;22603;47.900;8.146;2023-01-28T15:11:57;-2.20;99.90
36594;DHT22;22603;47.900;8.146;2023-01-28T15:14:46;-2.00;99.90
36594;DHT22;22603;47.900;8.146;2023-01-28T15:17:34;-2.10;99.90
36594;DHT22;22603;47.900;8.146;2023-01-28T15:20:22;-1.80;99.90
36594;DHT22;22603;47.900;8.146;2023-01-28T15:23:14;-2.00;99.90
36594;DHT22;22603;47.900;8.146;2023-01-28T15:26:12;-2.00;99.90
36594;DHT22;22603;47.900;8.146;2023-01-28T15:29:01;-2.00;99.90
36594;DHT22;22603;47.900;8.146;2023-01-28T15:31:54;-2.00;99.90
36594;DHT22;22603;47.900;8.146;2023-01-28T15:34:46;-2.00;99.90
36594;DHT22;22603;47.900;8.146;2023-01-28T15:37:36;-2.00;99.90
36594;DHT22;22603;47.900;8.146;2023-01-28T15:40:27;-2.00;99.90
36594;DHT22;22603;47.900;8.146;2023-01-28T15:43:21;-2.10;99.90
36594;DHT22;22603;47.900;8.146;2023-01-28T15:46:14;-2.00;99.90
36594;DHT22;22603;47.900;8.146;2023-01-28T15:49:04;-2.00;99.90
36594;DHT22;22603;47.900;8.146;2023-01-28T15:51:59;-2.00;99.90
36594;DHT22;22603;47.900;8.146;2023-01-28T15:54:56;-2.00;99.90
36594;DHT22;22603;47.900;8.146;2023-01-28T15:57:51;-2.00;99.90
36594;DHT22;22603;47.900;8.146;2023-01-28T16:00:44;-1.90;99.90
36594;DHT22;22603;47.900;8.146;2023-01-28T16:03:37;-1.90;99.90
36594;DHT22;22603;47.900;8.146;2023-01-28T16:06:33;-1.90;99.90
36594;DHT22;22603;47.900;8.146;2023-01-28T16:09:25;-2.00;99.90
36594;DHT22;22603;47.900;8.146;2023-01-28T16:12:18;-2.00;99.90
36594;DHT22;22603;47.900;8.146;2023-01-28T16:15:15;-2.10;99.90
36594;DHT22;22603;47.900;8.146;2023-01-28T16:18:19;-2.10;99.90
36594;DHT22;22603;47.900;8.146;2023-01-28T16:21:11;-2.00;99.90
36594;DHT22;22603;47.900;8.146;2023-01-28T16:24:03;-2.10;99.90
36594;DHT22;22603;47.900;8.146;2023-01-28T16:26:57;-2.10;99.90
36594;DHT22;22603;47.900;8.146;2023-01-28T16:29:48;-2.10;99.90
36594;DHT22;22603;47.900;8.146;2023-01-28T16:32:39;-2.10;99.90
36594;DHT22;22603;47.900;8.146;2023-01-28T16:35:34;-2.00;99.90
36594;DHT22;22603;47.900;8.146;2023-01-28T16:38:45;-1.80;99.90
36594;DHT22;22603;47.900;8.146;2023-01-28T16:41:39;-2.10;99.90
36594;DHT22;22603;47.900;8.146;2023-01-28T16:44:30;-2.10;99.90
36594;DHT22;22603;47.900;8.146;2023-01-28T16:47:19;-2.00;99.90
36594;DHT22;22603;47.900;8.146;2023-01-28T16:50:12;-2.00;99.90
36594;DHT22;22603;47.900;8.146;2023-01-28T16:53:02;-2.10;99.90
36594;DHT22;22603;47.900;8.146;2023-01-28T16:55:53;-2.10;99.90
36594;DHT22;22603;47.900;8.146;2023-01-28T16:58:43;-2.10;99.90
36594;DHT22;22603;47.900;8.146;2023-01-28T17:01:33;-2.10;99.90
36594;DHT22;22603;47.900;8.146;2023-01-28T17:04:24;-2.20;99.90
36594;DHT22;22603;47.900;8.146;2023-01-28T17:07:14;-2.20;99.90
36594;DHT22;22603;47.900;8.146;2023-01-28T17:10:05;-2.20;99.90
36594;DHT22;22603;47.900;8.146;2023-01-28T17:12:57;-2.20;99.90
36594;DHT22;22603;47.900;8.146;2023-01-28T17:15:50;-2.10;99.90
36594;DHT22;22603;47.900;8.146;2023-01-28T17:18:40;-2.10;99.90
36594;DHT22;22603;47.900;8.146;2023-01-28T17:21:27;-2.10;99.90
36594;DHT22;22603;47.900;8.146;2023-01-28T17:24:14;-2.10;99.90
36594;DHT22;22603;47.900;8.146;2023-01-28T17:27:03;-2.10;99.90
36594;DHT22;22603;47.900;8.146;2023-01-28T17:29:51;-2.10;99.90
36594;DHT22;22603;47.900;8.146;2023-01-28T17:32:37;-2.10;99.90
36594;DHT22;22603;47.900;8.146;2023-01-28T17:35:24;-2.10;99.90
36594;DHT22;22603;47.900;8.146;2023-01-28T17:38:11;-2.00;99.90
36594;DHT22;22603;47.900;8.146;2023-01-28T17:41:00;-2.00;99.90
36594;DHT22;22603;47.900;8.146;2023-01-28T17:43:53;-2.00;99.90
36594;DHT22;22603;47.900;8.146;2023-01-28T17:46:40;-2.00;99.90
36594;DHT22;22603;47.900;8.146;2023-01-28T17:49:27;-2.10;99.90
36594;DHT22;22603;47.900;8.146;2023-01-28T17:52:14;-2.00;99.90
36594;DHT22;22603;47.900;8.146;2023-01-28T17:55:00;-2.00;99.90
36594;DHT22;22603;47.900;8.146;2023-01-28T17:57:47;-2.10;99.90
36594;DHT22;22603;47.900;8.146;2023-01-28T18:00:36;-2.10;99.90
36594;DHT22;22603;47.900;8.146;2023-01-28T18:03:23;-2.10;99.90
36594;DHT22;22603;47.900;8.146;2023-01-28T18:06:10;-2.00;99.90
36594;DHT22;22603;47.900;8.146;2023-01-28T18:08:59;-2.10;99.90